createdAt,value
2022-08-05T00:00:21.916Z,81.36
2022-08-05T00:02:17.168Z,81.28
2022-08-05T00:03:24.336Z,81.36
2022-08-05T00:06:02.612Z,81.54
2022-08-05T00:08:32.966Z,81.50
2022-08-05T00:09:39.252Z,81.46
2022-08-05T00:11:49.190Z,81.26
2022-08-05T00:13:04.666Z,81.44
2022-08-05T00:14:39.054Z,81.45
2022-08-05T00:17:47.265Z,81.13
2022-08-05T00:19:03.217Z,80.74
2022-08-05T00:20:14.501Z,81.08
2022-08-05T00:22:00.954Z,81.20
2022-08-05T00:23:44.536Z,81.13
2022-08-05T00:25:23.824Z,81.31
2022-08-05T00:27:42.932Z,81.61
2022-08-05T00:28:55.010Z,81.12
2022-08-05T00:30:11.523Z,81.11
2022-08-05T00:32:57.245Z,81.03
2022-08-05T00:37:12.677Z,80.48
2022-08-05T00:38:39.639Z,81.86
2022-08-05T00:40:58.941Z,81.67
2022-08-05T00:42:38.177Z,81.27
2022-08-05T00:43:55.224Z,81.61
2022-08-05T00:45:49.554Z,81.30
2022-08-05T00:47:07.865Z,81.32
2022-08-05T00:48:57.002Z,81.49
2022-08-05T00:50:47.548Z,81.50
2022-08-05T00:52:45.485Z,81.54
2022-08-05T00:54:43.777Z,81.74
2022-08-05T00:56:36.153Z,81.89
2022-08-05T00:58:04.866Z,81.76
2022-08-05T00:59:14.666Z,81.84
2022-08-05T01:00:19.898Z,81.96
2022-08-05T01:01:48.634Z,81.85
2022-08-05T01:02:59.754Z,82.23
2022-08-05T01:05:15.649Z,82.31
2022-08-05T01:06:28.890Z,82.14
2022-08-05T01:08:48.063Z,82.73
2022-08-05T01:10:36.262Z,82.46
2022-08-05T01:11:54.712Z,82.23
2022-08-05T01:14:08.944Z,82.57
2022-08-05T01:16:32.251Z,82.51
2022-08-05T01:17:45.968Z,82.60
2022-08-05T01:19:02.205Z,82.72
2022-08-05T01:21:22.651Z,82.91
2022-08-05T01:22:47.023Z,82.77
2022-08-05T01:24:20.090Z,82.92
2022-08-05T01:26:20.593Z,82.90
2022-08-05T01:27:28.971Z,82.96
2022-08-05T01:28:54.939Z,82.56
2022-08-05T01:30:53.523Z,82.30
2022-08-05T01:32:01.204Z,81.88
2022-08-05T01:33:14.270Z,82.23
2022-08-05T01:35:10.425Z,82.34
2022-08-05T01:37:06.302Z,81.98
2022-08-05T01:38:35.684Z,81.82
2022-08-05T01:40:40.280Z,82.27
2022-08-05T01:41:50.139Z,82.18
2022-08-05T01:42:55.800Z,82.56
2022-08-05T01:45:00.309Z,82.22
2022-08-05T01:46:47.246Z,82.42
2022-08-05T01:47:54.496Z,82.57
2022-08-05T01:50:08.553Z,82.45
2022-08-05T01:51:37.206Z,82.24
2022-08-05T01:53:04.303Z,82.58
2022-08-05T01:55:36.123Z,82.26
2022-08-05T01:58:40.268Z,82.40
2022-08-05T01:59:52.941Z,81.78
2022-08-05T02:00:18.099Z,81.78
2022-08-05T02:01:37.993Z,82.25
2022-08-05T02:02:59.149Z,82.24
2022-08-05T02:04:55.384Z,82.20
2022-08-05T02:06:45.122Z,82.06
2022-08-05T02:08:07.352Z,82.21
2022-08-05T02:10:28.447Z,82.08
2022-08-05T02:11:42.203Z,82.09
2022-08-05T02:12:58.332Z,82.33
2022-08-05T02:15:19.753Z,82.33
2022-08-05T02:16:37.525Z,82.11
2022-08-05T02:18:41.961Z,81.86
2022-08-05T02:20:28.152Z,82.26
2022-08-05T02:21:49.384Z,82.17
2022-08-05T02:23:08.838Z,82.12
2022-08-05T02:24:46.482Z,82.35
2022-08-05T02:26:02.078Z,82.51
2022-08-05T02:27:16.137Z,82.85
2022-08-05T02:30:05.740Z,83.21
2022-08-05T02:31:21.335Z,83.13
2022-08-05T02:32:36.201Z,83.09
2022-08-05T02:34:28.927Z,83.01
2022-08-05T02:36:15.611Z,83.02
2022-08-05T02:37:27.454Z,82.86
2022-08-05T02:39:34.464Z,82.58
2022-08-05T02:40:45.236Z,82.54
2022-08-05T02:42:07.195Z,82.95
2022-08-05T02:44:19.194Z,82.62
2022-08-05T02:45:24.152Z,82.84
2022-08-05T02:47:09.689Z,82.69
2022-08-05T02:49:42.852Z,82.63
2022-08-05T02:50:49.775Z,82.88
2022-08-05T02:52:11.569Z,82.78
2022-08-05T02:54:09.863Z,82.91
2022-08-05T02:56:02.069Z,82.92
2022-08-05T02:58:17.992Z,83.33
2022-08-05T03:00:17.570Z,83.43
2022-08-05T03:01:27.329Z,83.55
2022-08-05T03:02:33.344Z,83.36
2022-08-05T03:04:42.742Z,83.34
2022-08-05T03:07:04.831Z,83.20
2022-08-05T03:09:10.422Z,83.06
2022-08-05T03:12:03.321Z,82.99
2022-08-05T03:14:54.635Z,82.80
2022-08-05T03:16:41.436Z,82.66
2022-08-05T03:17:50.562Z,82.82
2022-08-05T03:19:38.903Z,82.76
2022-08-05T03:21:48.863Z,82.89
2022-08-05T03:23:13.112Z,82.90
2022-08-05T03:24:36.208Z,82.90
2022-08-05T03:28:06.070Z,82.73
2022-08-05T03:29:18.163Z,82.55
2022-08-05T03:31:01.194Z,82.69
2022-08-05T03:33:23.284Z,82.75
2022-08-05T03:34:57.018Z,82.65
2022-08-05T03:36:04.471Z,82.60
2022-08-05T03:38:06.708Z,82.88
2022-08-05T03:39:38.096Z,82.68
2022-08-05T03:41:23.651Z,82.77
2022-08-05T03:44:19.670Z,82.98
2022-08-05T03:45:29.382Z,82.99
2022-08-05T03:47:00.670Z,82.92
2022-08-05T03:49:03.039Z,82.99
2022-08-05T03:50:37.664Z,82.96
2022-08-05T03:56:30.514Z,82.94
2022-08-05T03:58:34.855Z,82.82
2022-08-05T03:59:59.883Z,82.78
2022-08-05T04:00:21.716Z,83.00
2022-08-05T04:01:38.015Z,82.96
2022-08-05T04:03:04.728Z,83.52
2022-08-05T04:05:47.187Z,83.33
2022-08-05T04:06:57.308Z,83.70
2022-08-05T04:08:05.845Z,83.89
2022-08-05T04:10:43.441Z,83.80
2022-08-05T04:11:57.056Z,83.89
2022-08-05T04:13:17.225Z,83.96
2022-08-05T04:15:24.298Z,83.82
2022-08-05T04:17:12.468Z,83.97
2022-08-05T04:18:53.956Z,83.99
2022-08-05T04:20:42.997Z,84.08
2022-08-05T04:22:20.541Z,84.27
2022-08-05T04:24:18.682Z,84.13
2022-08-05T04:26:44.788Z,84.25
2022-08-05T04:28:11.291Z,84.41
2022-08-05T04:29:40.048Z,84.04
2022-08-05T04:31:27.567Z,84.29
2022-08-05T04:32:44.705Z,84.25
2022-08-05T04:34:32.637Z,84.14
2022-08-05T04:38:08.644Z,84.16
2022-08-05T04:39:33.540Z,84.42
2022-08-05T04:40:56.534Z,84.51
2022-08-05T04:42:52.003Z,84.48
2022-08-05T04:44:09.593Z,84.29
2022-08-05T04:45:55.042Z,84.30
2022-08-05T04:47:53.019Z,84.13
2022-08-05T04:49:24.715Z,84.47
2022-08-05T04:52:00.541Z,85.04
2022-08-05T04:53:44.604Z,85.04
2022-08-05T04:54:57.234Z,85.25
2022-08-05T04:57:29.130Z,85.37
2022-08-05T04:59:38.340Z,85.22
2022-08-05T05:00:19.590Z,85.13
2022-08-05T05:02:35.092Z,85.15
2022-08-05T05:03:50.220Z,84.78
2022-08-05T05:06:52.081Z,84.74
2022-08-05T05:08:30.026Z,84.97
2022-08-05T05:09:46.378Z,84.95
2022-08-05T05:11:54.580Z,84.67
2022-08-05T05:13:04.390Z,84.85
2022-08-05T05:14:33.787Z,84.90
2022-08-05T05:16:56.256Z,84.90
2022-08-05T05:18:48.481Z,84.75
2022-08-05T05:20:34.549Z,84.98
2022-08-05T05:22:31.764Z,84.58
2022-08-05T05:24:09.946Z,84.65
2022-08-05T05:26:28.850Z,84.47
2022-08-05T05:28:38.945Z,84.13
2022-08-05T05:30:15.528Z,84.07
2022-08-05T05:33:23.118Z,83.21
2022-08-05T05:34:58.163Z,83.35
2022-08-05T05:36:20.320Z,83.21
2022-08-05T05:38:22.415Z,82.77
2022-08-05T05:39:37.328Z,83.00
2022-08-05T05:40:49.523Z,83.26
2022-08-05T05:42:41.082Z,83.04
2022-08-05T05:44:35.920Z,83.07
2022-08-05T05:45:53.940Z,82.86
2022-08-05T05:48:16.166Z,83.01
2022-08-05T05:49:29.047Z,82.64
2022-08-05T05:50:49.785Z,82.43
2022-08-05T05:52:52.125Z,82.37
2022-08-05T05:54:56.240Z,82.60
2022-08-05T05:56:39.588Z,82.40
2022-08-05T05:58:51.318Z,81.79
2022-08-05T06:00:17.285Z,82.36
2022-08-05T06:01:57.214Z,82.33
2022-08-05T06:04:06.415Z,82.20
2022-08-05T06:06:01.161Z,81.62
2022-08-05T06:07:08.525Z,81.59
2022-08-05T06:08:47.815Z,81.84
2022-08-05T06:10:58.725Z,81.71
2022-08-05T06:12:09.571Z,81.74
2022-08-05T06:13:14.144Z,81.91
2022-08-05T06:16:28.358Z,82.34
2022-08-05T06:17:58.790Z,82.10
2022-08-05T06:19:13.612Z,81.75
2022-08-05T06:21:49.739Z,81.91
2022-08-05T06:22:52.715Z,81.86
2022-08-05T06:23:55.787Z,81.86
2022-08-05T06:26:45.879Z,82.22
2022-08-05T06:29:03.286Z,82.74
2022-08-05T06:31:18.049Z,82.65
2022-08-05T06:34:00.507Z,82.67
2022-08-05T06:36:04.215Z,82.75
2022-08-05T06:38:11.413Z,82.29
2022-08-05T06:40:18.581Z,81.86
2022-08-05T06:41:40.608Z,81.51
2022-08-05T06:42:45.969Z,81.66
2022-08-05T06:45:21.027Z,81.50
2022-08-05T06:47:02.355Z,81.77
2022-08-05T06:50:07.747Z,81.11
2022-08-05T06:51:50.380Z,80.54
2022-08-05T06:53:39.249Z,80.21
2022-08-05T06:54:59.653Z,80.29
2022-08-05T06:56:40.590Z,80.19
2022-08-05T06:59:27.963Z,79.89
2022-08-05T07:00:22.210Z,79.37
2022-08-05T07:01:40.887Z,79.62
2022-08-05T07:02:53.514Z,79.47
2022-08-05T07:04:47.877Z,79.84
2022-08-05T07:06:20.844Z,79.66
2022-08-05T07:07:49.520Z,79.07
2022-08-05T07:09:48.934Z,77.79
2022-08-05T07:11:22.427Z,77.95
2022-08-05T07:12:42.693Z,76.76
2022-08-05T07:15:01.158Z,76.30
2022-08-05T07:18:20.382Z,76.00
2022-08-05T07:20:38.773Z,75.35
2022-08-05T07:22:48.526Z,76.66
2022-08-05T07:24:17.099Z,76.33
2022-08-05T07:26:36.804Z,76.84
2022-08-05T07:28:59.805Z,76.56
2022-08-05T07:31:09.128Z,76.88
2022-08-05T07:32:44.367Z,75.85
2022-08-05T07:36:05.228Z,75.87
2022-08-05T07:37:29.170Z,75.10
2022-08-05T07:38:49.536Z,73.78
2022-08-05T07:43:26.698Z,73.35
2022-08-05T07:44:37.669Z,74.16
2022-08-05T07:46:03.905Z,73.84
2022-08-05T07:49:08.742Z,73.94
2022-08-05T07:50:28.903Z,74.10
2022-08-05T07:51:53.717Z,73.93
2022-08-05T07:53:50.851Z,73.00
2022-08-05T07:54:59.243Z,72.99
2022-08-05T07:59:04.678Z,72.26
2022-08-05T08:00:17.959Z,72.42
2022-08-05T08:01:22.203Z,70.65
2022-08-05T08:03:21.549Z,70.72
2022-08-05T08:05:33.753Z,70.97
2022-08-05T08:06:51.447Z,71.42
2022-08-05T08:08:06.142Z,70.24
2022-08-05T08:09:55.125Z,71.21
2022-08-05T08:11:08.982Z,70.36
2022-08-05T08:13:04.194Z,70.84
2022-08-05T08:16:33.773Z,69.95
2022-08-05T08:17:58.721Z,69.93
2022-08-05T08:20:10.080Z,70.24
2022-08-05T08:22:44.577Z,69.27
2022-08-05T08:25:03.509Z,67.91
2022-08-05T08:26:54.412Z,68.15
2022-08-05T08:30:32.529Z,65.61
2022-08-05T08:31:48.768Z,66.54
2022-08-05T08:33:14.469Z,66.23
2022-08-05T08:35:02.853Z,66.25
2022-08-05T08:36:54.033Z,66.98
2022-08-05T08:38:32.119Z,66.61
2022-08-05T08:40:36.630Z,65.82
2022-08-05T08:42:10.726Z,64.95
2022-08-05T08:46:22.065Z,65.83
2022-08-05T08:52:13.634Z,61.65
2022-08-05T08:53:18.334Z,62.76
2022-08-05T08:54:33.216Z,60.14
2022-08-05T08:57:02.138Z,60.99
2022-08-05T08:58:49.578Z,62.24
2022-08-05T09:00:21.277Z,60.72
2022-08-05T09:01:28.928Z,59.98
2022-08-05T09:02:57.074Z,61.07
2022-08-05T09:05:38.684Z,60.90
2022-08-05T09:07:40.043Z,61.46
2022-08-05T09:09:08.086Z,62.92
2022-08-05T09:10:59.237Z,62.22
2022-08-05T09:12:56.523Z,59.98
2022-08-05T09:14:57.763Z,60.97
2022-08-05T09:16:48.795Z,57.49
2022-08-05T09:18:23.645Z,55.01
2022-08-05T09:20:08.542Z,55.11
2022-08-05T09:23:37.461Z,55.38
2022-08-05T09:24:56.095Z,55.17
2022-08-05T09:27:01.483Z,54.67
2022-08-05T09:29:36.783Z,55.23
2022-08-05T09:31:22.440Z,54.94
2022-08-05T09:33:45.504Z,56.87
2022-08-05T09:35:33.061Z,55.76
2022-08-05T09:36:54.402Z,56.80
2022-08-05T09:39:24.244Z,55.77
2022-08-05T09:41:44.736Z,56.35
2022-08-05T09:43:15.415Z,55.93
2022-08-05T09:44:32.251Z,56.28
2022-08-05T09:47:15.979Z,56.75
2022-08-05T09:49:07.624Z,52.50
2022-08-05T09:51:21.379Z,52.50
2022-08-05T09:53:06.659Z,52.52
2022-08-05T09:54:56.263Z,53.68
2022-08-05T09:57:23.393Z,53.15
2022-08-05T09:59:18.227Z,53.93
2022-08-05T10:00:19.532Z,48.76
2022-08-05T10:01:39.585Z,49.89
2022-08-05T10:02:50.433Z,47.19
2022-08-05T10:04:59.192Z,46.58
2022-08-05T10:06:15.569Z,46.13
2022-08-05T10:08:11.274Z,44.77
2022-08-05T10:11:19.406Z,44.85
2022-08-05T10:12:40.096Z,46.43
2022-08-05T10:14:00.487Z,43.57
2022-08-05T10:15:49.221Z,45.07
2022-08-05T10:16:58.979Z,44.61
2022-08-05T10:18:43.436Z,45.64
2022-08-05T10:21:15.821Z,43.28
2022-08-05T10:22:37.985Z,41.51
2022-08-05T10:24:34.151Z,38.58
2022-08-05T10:26:24.296Z,40.33
2022-08-05T10:28:29.723Z,38.22
2022-08-05T10:32:53.914Z,40.95
2022-08-05T10:34:55.466Z,40.16
2022-08-05T10:36:14.053Z,42.55
2022-08-05T10:37:26.735Z,41.80
2022-08-05T10:40:28.271Z,40.78
2022-08-05T10:41:52.836Z,39.59
2022-08-05T10:43:00.610Z,38.64
2022-08-05T10:44:52.268Z,37.59
2022-08-05T10:46:30.792Z,37.77
2022-08-05T10:47:40.485Z,39.45
2022-08-05T10:51:29.668Z,38.62
2022-08-05T10:53:04.206Z,37.86
2022-08-05T10:54:46.921Z,36.36
2022-08-05T10:57:16.359Z,38.19
2022-08-05T10:58:48.027Z,38.68
2022-08-05T11:00:25.115Z,38.82
2022-08-05T11:02:19.193Z,40.02
2022-08-05T11:04:14.825Z,37.59
2022-08-05T11:05:59.345Z,35.44
2022-08-05T11:08:33.709Z,35.42
2022-08-05T11:10:09.646Z,35.72
2022-08-05T11:12:02.974Z,33.64
2022-08-05T11:13:10.481Z,36.33
2022-08-05T11:14:18.552Z,34.32
2022-08-05T11:18:47.014Z,34.42
2022-08-05T11:21:11.852Z,34.65
2022-08-05T11:22:38.976Z,33.60
2022-08-05T11:26:12.305Z,33.28
2022-08-05T11:28:00.838Z,34.26
2022-08-05T11:29:19.706Z,33.87
2022-08-05T11:31:00.266Z,34.09
2022-08-05T11:32:47.922Z,34.88
2022-08-05T11:34:31.888Z,36.35
2022-08-05T11:36:58.828Z,35.82
2022-08-05T11:39:39.128Z,34.24
2022-08-05T11:42:01.965Z,34.16
2022-08-05T11:44:59.778Z,34.48
2022-08-05T11:48:00.583Z,34.37
2022-08-05T11:49:10.559Z,36.00
2022-08-05T11:50:48.075Z,35.12
2022-08-05T11:52:35.263Z,35.70
2022-08-05T11:53:50.468Z,35.00
2022-08-05T11:55:41.935Z,34.42
2022-08-05T11:56:57.670Z,34.42
2022-08-05T11:58:59.466Z,34.24
2022-08-05T12:00:17.948Z,34.47
2022-08-05T12:01:38.970Z,36.91
2022-08-05T12:02:45.951Z,33.24
2022-08-05T12:04:36.957Z,34.32
2022-08-05T12:06:25.919Z,34.50
2022-08-05T12:08:17.999Z,35.92
2022-08-05T12:10:52.518Z,34.43
2022-08-05T12:12:19.994Z,35.36
2022-08-05T12:13:55.337Z,34.98
2022-08-05T12:15:49.842Z,35.40
2022-08-05T12:18:10.481Z,37.62
2022-08-05T12:20:34.069Z,36.22
2022-08-05T12:22:25.610Z,38.07
2022-08-05T12:23:33.261Z,37.82
2022-08-05T12:24:49.629Z,38.71
2022-08-05T12:26:29.574Z,39.60
2022-08-05T12:27:38.834Z,39.39
2022-08-05T12:29:22.864Z,39.32
2022-08-05T12:31:53.628Z,39.89
2022-08-05T12:33:38.693Z,40.44
2022-08-05T12:34:45.244Z,41.44
2022-08-05T12:36:39.197Z,43.15
2022-08-05T12:37:45.091Z,42.28
2022-08-05T12:39:02.878Z,41.75
2022-08-05T12:41:19.365Z,41.58
2022-08-05T12:42:44.888Z,41.94
2022-08-05T12:44:01.298Z,42.19
2022-08-05T12:46:22.436Z,43.34
2022-08-05T12:47:43.447Z,42.44
2022-08-05T12:50:03.937Z,43.13
2022-08-05T12:52:32.341Z,43.57
2022-08-05T12:53:44.419Z,42.51
2022-08-05T12:55:15.948Z,42.91
2022-08-05T12:58:53.085Z,44.31
2022-08-05T13:02:12.264Z,44.06
2022-08-05T13:03:32.531Z,45.75
2022-08-05T13:05:00.531Z,43.69
2022-08-05T13:06:57.785Z,44.26
2022-08-05T13:08:58.111Z,44.52
2022-08-05T13:10:19.411Z,44.80
2022-08-05T13:13:04.298Z,42.88
2022-08-05T13:15:36.111Z,42.41
2022-08-05T13:16:51.682Z,43.91
2022-08-05T13:18:39.746Z,45.85
2022-08-05T13:19:58.685Z,45.23
2022-08-05T13:21:12.530Z,44.33
2022-08-05T13:23:28.475Z,45.30
2022-08-05T13:25:07.940Z,45.20
2022-08-05T13:27:17.051Z,43.00
2022-08-05T13:29:59.411Z,41.71
2022-08-05T13:32:10.940Z,41.16
2022-08-05T13:34:30.950Z,39.35
2022-08-05T13:36:34.675Z,41.45
2022-08-05T13:37:40.633Z,41.63
2022-08-05T13:40:36.835Z,40.48
2022-08-05T13:42:30.766Z,40.15
2022-08-05T13:44:00.233Z,39.91
2022-08-05T13:45:04.661Z,41.20
2022-08-05T13:49:02.594Z,40.94
2022-08-05T13:50:22.306Z,41.10
2022-08-05T13:51:27.917Z,41.86
2022-08-05T13:53:24.433Z,42.02
2022-08-05T13:55:07.881Z,42.47
2022-08-05T13:57:06.233Z,42.26
2022-08-05T13:59:36.660Z,42.30
2022-08-05T14:00:18.726Z,43.22
2022-08-05T14:02:02.793Z,43.68
2022-08-05T14:03:22.174Z,41.30
2022-08-05T14:05:11.536Z,40.17
2022-08-05T14:08:20.810Z,40.46
2022-08-05T14:09:35.500Z,43.53
2022-08-05T14:11:27.589Z,42.87
2022-08-05T14:13:32.263Z,43.59
2022-08-05T14:14:44.943Z,45.26
2022-08-05T14:17:36.592Z,42.93
2022-08-05T14:18:46.552Z,42.89
2022-08-05T14:20:07.459Z,43.14
2022-08-05T14:22:56.094Z,43.34
2022-08-05T14:24:19.476Z,42.78
2022-08-05T14:25:33.357Z,43.56
2022-08-05T14:28:04.094Z,43.01
2022-08-05T14:29:40.852Z,43.87
2022-08-05T14:31:01.776Z,43.66
2022-08-05T14:34:06.275Z,42.72
2022-08-05T14:35:37.562Z,42.93
2022-08-05T14:36:54.461Z,42.34
2022-08-05T14:38:42.010Z,42.57
2022-08-05T14:39:56.953Z,41.89
2022-08-05T14:41:13.200Z,42.99
2022-08-05T14:44:20.000Z,43.96
2022-08-05T14:45:28.705Z,43.26
2022-08-05T14:46:36.237Z,43.96
2022-08-05T14:49:19.288Z,44.99
2022-08-05T14:51:15.467Z,44.30
2022-08-05T14:52:58.630Z,45.73
2022-08-05T14:55:49.420Z,45.27
2022-08-05T14:57:13.691Z,44.64
2022-08-05T14:58:59.576Z,44.42
2022-08-05T15:00:20.801Z,44.76
2022-08-05T15:02:30.407Z,44.21
2022-08-05T15:03:45.365Z,44.77
2022-08-05T15:05:29.587Z,44.36
2022-08-05T15:08:58.482Z,44.77
2022-08-05T15:10:46.083Z,43.87
2022-08-05T15:13:10.073Z,44.01
2022-08-05T15:14:54.930Z,44.18
2022-08-05T15:16:42.873Z,44.98
2022-08-05T15:19:02.235Z,45.92
2022-08-05T15:20:30.586Z,47.25
2022-08-05T15:21:36.228Z,46.43
2022-08-05T15:23:20.359Z,47.05
2022-08-05T15:24:27.887Z,47.52
2022-08-05T15:26:02.754Z,47.45
2022-08-05T15:27:58.133Z,48.39
2022-08-05T15:29:13.881Z,47.70
2022-08-05T15:30:29.334Z,47.09
2022-08-05T15:32:22.468Z,47.94
2022-08-05T15:34:32.796Z,48.34
2022-08-05T15:35:45.239Z,48.21
2022-08-05T15:38:42.272Z,48.30
2022-08-05T15:43:09.404Z,48.53
2022-08-05T15:44:36.587Z,49.04
2022-08-05T15:46:41.489Z,49.50
2022-08-05T15:47:48.623Z,50.55
2022-08-05T15:49:26.239Z,50.32
2022-08-05T15:52:51.600Z,49.98
2022-08-05T15:54:21.230Z,50.20
2022-08-05T15:56:14.183Z,51.18
2022-08-05T15:57:54.801Z,50.68
2022-08-05T15:59:05.003Z,50.71
2022-08-05T16:00:26.146Z,51.09
2022-08-05T16:02:34.614Z,50.87
2022-08-05T16:03:48.429Z,50.98
2022-08-05T16:05:50.784Z,51.44
2022-08-05T16:07:01.843Z,51.45
2022-08-05T16:08:10.625Z,52.01
2022-08-05T16:09:55.998Z,51.88
2022-08-05T16:11:13.618Z,51.91
2022-08-05T16:12:45.389Z,52.58
2022-08-05T16:14:28.114Z,51.98
2022-08-05T16:15:38.369Z,51.49
2022-08-05T16:16:44.942Z,51.02
2022-08-05T16:18:29.102Z,50.36
2022-08-05T16:20:44.287Z,50.20
2022-08-05T16:22:10.469Z,50.61
2022-08-05T16:24:07.557Z,49.24
2022-08-05T16:26:01.633Z,49.34
2022-08-05T16:27:15.884Z,49.58
2022-08-05T16:29:47.504Z,49.72
2022-08-05T16:31:10.525Z,49.54
2022-08-05T16:32:45.015Z,50.00
2022-08-05T16:34:35.575Z,48.94
2022-08-05T16:35:52.754Z,49.37
2022-08-05T16:38:03.173Z,48.04
2022-08-05T16:41:00.755Z,48.40
2022-08-05T16:43:23.489Z,48.68
2022-08-05T16:44:31.370Z,48.26
2022-08-05T16:47:53.598Z,49.45
2022-08-05T16:49:19.759Z,49.89
2022-08-05T16:50:27.698Z,49.87
2022-08-05T16:52:04.669Z,50.92
2022-08-05T16:54:04.019Z,51.11
2022-08-05T16:55:26.292Z,50.43
2022-08-05T16:58:08.574Z,50.40
2022-08-05T16:59:14.705Z,50.48
2022-08-05T17:00:34.609Z,50.44
2022-08-05T17:02:01.107Z,51.11
2022-08-05T17:03:19.627Z,50.12
2022-08-05T17:05:00.302Z,49.93
2022-08-05T17:06:07.858Z,49.46
2022-08-05T17:07:54.671Z,49.84
2022-08-05T17:10:08.481Z,48.80
2022-08-05T17:11:23.781Z,49.49
2022-08-05T17:12:58.275Z,49.89
2022-08-05T17:15:21.449Z,46.45
2022-08-05T17:17:25.311Z,47.06
2022-08-05T17:19:07.503Z,46.11
2022-08-05T17:20:55.198Z,45.15
2022-08-05T17:22:04.336Z,45.43
2022-08-05T17:24:18.450Z,45.75
2022-08-05T17:26:56.278Z,46.05
2022-08-05T17:28:02.498Z,46.44
2022-08-05T17:29:15.829Z,46.91
2022-08-05T17:32:05.199Z,46.73
2022-08-05T17:33:23.185Z,46.34
2022-08-05T17:34:44.584Z,46.80
2022-08-05T17:37:50.697Z,47.44
2022-08-05T17:39:05.095Z,46.75
2022-08-05T17:40:45.725Z,46.52
2022-08-05T17:43:59.093Z,47.31
2022-08-05T17:45:38.027Z,46.85
2022-08-05T17:46:52.257Z,46.01
2022-08-05T17:48:43.237Z,45.75
2022-08-05T17:50:10.859Z,45.78
2022-08-05T17:51:27.888Z,46.53
2022-08-05T17:53:42.571Z,46.82
2022-08-05T17:54:56.405Z,46.74
2022-08-05T17:56:02.858Z,46.12
2022-08-05T17:57:59.658Z,47.12
2022-08-05T17:59:21.027Z,47.29
2022-08-05T18:00:19.867Z,48.03
2022-08-05T18:01:56.221Z,48.12
2022-08-05T18:03:28.063Z,47.80
2022-08-05T18:06:01.503Z,47.89
2022-08-05T18:07:26.259Z,48.51
2022-08-05T18:08:57.892Z,48.58
2022-08-05T18:11:35.364Z,49.40
2022-08-05T18:12:44.885Z,49.64
2022-08-05T18:13:59.741Z,49.68
2022-08-05T18:15:46.584Z,50.58
2022-08-05T18:17:01.026Z,50.66
2022-08-05T18:19:07.391Z,50.77
2022-08-05T18:20:55.102Z,51.30
2022-08-05T18:23:11.522Z,51.83
2022-08-05T18:24:34.653Z,52.02
2022-08-05T18:26:13.645Z,52.10
2022-08-05T18:27:28.531Z,51.95
2022-08-05T18:28:46.562Z,52.30
2022-08-05T18:30:40.505Z,52.19
2022-08-05T18:31:49.671Z,53.28
2022-08-05T18:33:22.602Z,52.78
2022-08-05T18:36:03.306Z,52.86
2022-08-05T18:37:40.654Z,53.53
2022-08-05T18:38:47.508Z,53.39
2022-08-05T18:43:16.289Z,53.61
2022-08-05T18:44:56.181Z,53.31
2022-08-05T18:46:01.860Z,53.63
2022-08-05T18:48:02.182Z,54.16
2022-08-05T18:50:02.817Z,54.15
2022-08-05T18:52:14.057Z,53.34
2022-08-05T18:54:23.547Z,52.55
2022-08-05T18:55:40.555Z,53.11
2022-08-05T18:56:57.746Z,52.81
2022-08-05T19:00:28.413Z,53.40
2022-08-05T19:01:58.236Z,52.43
2022-08-05T19:03:53.309Z,51.96
2022-08-05T19:07:02.898Z,52.46
2022-08-05T19:08:13.404Z,52.74
2022-08-05T19:09:39.434Z,52.90
2022-08-05T19:12:05.252Z,53.45
2022-08-05T19:13:12.230Z,53.25
2022-08-05T19:15:00.366Z,53.25
2022-08-05T19:18:22.221Z,53.65
2022-08-05T19:19:27.484Z,53.46
2022-08-05T19:20:49.080Z,53.95
2022-08-05T19:22:33.416Z,53.97
2022-08-05T19:24:17.976Z,54.11
2022-08-05T19:26:14.206Z,54.07
2022-08-05T19:28:11.235Z,54.24
2022-08-05T19:29:16.337Z,54.47
2022-08-05T19:30:36.376Z,54.85
2022-08-05T19:32:38.687Z,55.03
2022-08-05T19:33:56.679Z,54.91
2022-08-05T19:35:11.390Z,54.97
2022-08-05T19:37:34.879Z,55.62
2022-08-05T19:39:22.921Z,55.98
2022-08-05T19:40:51.347Z,55.99
2022-08-05T19:44:13.408Z,56.59
2022-08-05T19:45:36.290Z,56.87
2022-08-05T19:47:21.990Z,56.82
2022-08-05T19:49:16.400Z,57.33
2022-08-05T19:50:21.021Z,57.22
2022-08-05T19:52:40.582Z,57.35
2022-08-05T19:56:32.373Z,58.71
2022-08-05T19:58:28.699Z,59.02
2022-08-05T20:00:17.933Z,59.17
2022-08-05T20:01:34.423Z,59.25
2022-08-05T20:02:38.521Z,59.91
2022-08-05T20:04:36.929Z,60.17
2022-08-05T20:05:57.965Z,60.32
2022-08-05T20:07:59.194Z,60.38
2022-08-05T20:10:02.303Z,60.68
2022-08-05T20:11:23.736Z,60.86
2022-08-05T20:12:52.041Z,61.09
2022-08-05T20:15:07.585Z,61.14
2022-08-05T20:16:45.321Z,61.28
2022-08-05T20:17:48.412Z,61.32
2022-08-05T20:19:47.817Z,61.32
2022-08-05T20:21:06.610Z,61.33
2022-08-05T20:22:15.455Z,61.36
2022-08-05T20:24:01.013Z,61.40
2022-08-05T20:25:09.969Z,61.48
2022-08-05T20:26:23.309Z,61.36
2022-08-05T20:28:22.074Z,61.63
2022-08-05T20:29:33.511Z,61.68
2022-08-05T20:30:50.662Z,61.63
2022-08-05T20:32:51.177Z,61.49
2022-08-05T20:33:55.121Z,61.28
2022-08-05T20:35:01.419Z,61.24
2022-08-05T20:36:43.562Z,61.25
2022-08-05T20:38:59.533Z,61.56
2022-08-05T20:40:16.523Z,61.63
2022-08-05T20:42:33.882Z,62.04
2022-08-05T20:44:17.095Z,62.16
2022-08-05T20:46:02.774Z,61.77
2022-08-05T20:47:52.280Z,61.81
2022-08-05T20:49:00.327Z,61.79
2022-08-05T20:50:21.045Z,61.62
2022-08-05T20:52:08.086Z,61.50
2022-08-05T20:53:36.590Z,61.81
2022-08-05T20:56:08.589Z,61.75
2022-08-05T20:58:37.590Z,61.94
2022-08-05T21:00:54.617Z,61.97
2022-08-05T21:02:26.773Z,62.28
2022-08-05T21:03:53.911Z,63.04
2022-08-05T21:05:53.350Z,63.24
2022-08-05T21:07:50.665Z,63.42
2022-08-05T21:08:58.279Z,62.92
2022-08-05T21:10:55.043Z,63.16
2022-08-05T21:13:36.779Z,63.07
2022-08-05T21:14:55.438Z,63.30
2022-08-05T21:16:40.694Z,63.05
2022-08-05T21:17:48.325Z,63.12
2022-08-05T21:18:57.331Z,63.18
2022-08-05T21:21:24.511Z,63.51
2022-08-05T21:22:44.547Z,63.66
2022-08-05T21:23:49.352Z,64.03
2022-08-05T21:25:39.914Z,64.50
2022-08-05T21:27:04.256Z,64.54
2022-08-05T21:28:30.870Z,64.70
2022-08-05T21:30:38.369Z,64.96
2022-08-05T21:31:47.521Z,65.12
2022-08-05T21:33:01.744Z,65.21
2022-08-05T21:35:29.437Z,65.62
2022-08-05T21:37:10.686Z,65.80
2022-08-05T21:38:22.669Z,65.82
2022-08-05T21:40:19.662Z,65.93
2022-08-05T21:41:33.008Z,66.30
2022-08-05T21:43:33.587Z,66.34
2022-08-05T21:46:04.082Z,66.57
2022-08-05T21:48:06.566Z,66.80
2022-08-05T21:49:48.279Z,66.96
2022-08-05T21:52:34.272Z,67.42
2022-08-05T21:54:09.758Z,67.39
2022-08-05T21:56:16.689Z,67.37
2022-08-05T21:58:42.486Z,67.79
2022-08-05T22:00:18.412Z,67.90
2022-08-05T22:01:35.477Z,67.99
2022-08-05T22:02:42.935Z,67.85
2022-08-05T22:04:54.885Z,67.91
2022-08-05T22:06:10.723Z,68.01
2022-08-05T22:08:04.329Z,68.11
2022-08-05T22:10:33.136Z,68.37
2022-08-05T22:11:42.206Z,68.28
2022-08-05T22:12:58.921Z,68.09
2022-08-05T22:17:34.491Z,68.38
2022-08-05T22:19:15.240Z,68.24
2022-08-05T22:21:25.423Z,68.42
2022-08-05T22:24:03.227Z,68.58
2022-08-05T22:26:17.283Z,68.67
2022-08-05T22:28:15.807Z,68.88
2022-08-05T22:30:17.193Z,68.98
2022-08-05T22:31:55.184Z,69.20
2022-08-05T22:33:56.302Z,69.34
2022-08-05T22:35:55.159Z,69.39
2022-08-05T22:37:05.187Z,69.42
2022-08-05T22:38:40.120Z,69.65
2022-08-05T22:40:31.410Z,69.86
2022-08-05T22:42:25.472Z,69.83
2022-08-05T22:43:45.314Z,69.84
2022-08-05T22:45:27.651Z,69.86
2022-08-05T22:46:45.339Z,69.83
2022-08-05T22:48:02.572Z,69.76
2022-08-05T22:50:29.260Z,70.01
2022-08-05T22:52:22.845Z,70.22
2022-08-05T22:53:42.206Z,70.24
2022-08-05T22:55:29.461Z,70.38
2022-08-05T22:57:11.590Z,70.49
2022-08-05T22:58:34.394Z,70.64
2022-08-05T23:00:24.230Z,70.95
2022-08-05T23:02:09.807Z,71.08
2022-08-05T23:04:04.399Z,71.19
2022-08-05T23:05:49.751Z,71.28
2022-08-05T23:06:59.626Z,71.26
2022-08-05T23:08:11.402Z,71.28
2022-08-05T23:10:50.922Z,71.38
2022-08-05T23:12:02.495Z,71.37
2022-08-05T23:13:13.596Z,71.47
2022-08-05T23:15:08.528Z,71.60
2022-08-05T23:16:39.106Z,71.70
2022-08-05T23:18:11.675Z,71.72
2022-08-05T23:20:24.519Z,71.81
2022-08-05T23:21:48.725Z,71.85
2022-08-05T23:23:05.763Z,72.00
2022-08-05T23:24:59.936Z,72.13
2022-08-05T23:26:42.430Z,72.19